LTBJ/ADB METAR and TAF weather

Enter ICAO airport designator
Station Type Date Time Source
LTBJ METAR 2018/12/11 17:50 UTC NOAA

LTBJ 111750Z VRB03KT 9999 SCT030 BKN100 08/06 Q1012 NOSIG


Station Type Date Time Source
LTBJ Decoded METAR 2018/12/11 17:50 UTC NOAA

Izmir / Adnan Menderes, Turkey (LTBJ) 38-16N 027-09E 120M
Dec 11, 2018 - 12:50 PM EST / 2018.12.11 1750 UTC
Wind: Variable at 3 MPH (3 KT):0
Visibility: greater than 7 mile(s):0
Sky conditions: mostly cloudy
Temperature: 46 F (8 C)
Dew Point: 42 F (6 C)
Relative Humidity: 87%
Pressure (altimeter): 29.88 in. Hg (1012 hPa)
ob: LTBJ 111750Z VRB03KT 9999 SCT030 BKN100 08/06 Q1012 NOSIG
cycle: 18

Station Type Date Time Source
LTBJ TAF 2018/12/11 18:03 UTC NOAA

TAF LTBJ 111640Z 1118/1218 VRB02KT 9999 SCT030 BKN100
TEMPO 1118/1122 -SHRA
TEMPO 1200/1204 -SHRA
BECMG 1201/1203 35012KT
BECMG 1205/1207 CAVOK
BECMG 1209/1211 SCT030
BECMG 1214/1216 VRB02KT


Example: see airport list